createdAt,value
2023-01-12T00:00:37.577Z,6.80
2023-01-12T00:03:09.315Z,6.90
2023-01-12T00:05:41.080Z,6.80
2023-01-12T00:08:13.017Z,6.80
2023-01-12T00:10:44.834Z,6.70
2023-01-12T00:13:18.333Z,6.60
2023-01-12T00:16:09.022Z,6.60
2023-01-12T00:18:41.006Z,6.70
2023-01-12T00:21:13.456Z,6.60
2023-01-12T00:23:45.359Z,6.60
2023-01-12T00:26:17.219Z,6.50
2023-01-12T00:28:49.130Z,6.60
2023-01-12T00:31:20.978Z,6.60
2023-01-12T00:33:52.849Z,6.60
2023-01-12T00:36:24.759Z,6.50
2023-01-12T00:38:56.649Z,6.50
2023-01-12T00:41:46.983Z,6.40
2023-01-12T00:44:37.245Z,6.40
2023-01-12T00:47:10.507Z,6.40
2023-01-12T00:49:43.353Z,6.40
2023-01-12T00:52:29.280Z,6.50
2023-01-12T00:55:02.511Z,6.40
2023-01-12T00:57:34.429Z,6.40
2023-01-12T01:00:06.963Z,6.40
2023-01-12T01:02:38.825Z,6.40
2023-01-12T01:05:10.832Z,6.50
2023-01-12T01:07:42.734Z,6.50
2023-01-12T01:10:15.681Z,6.50
2023-01-12T01:12:47.503Z,6.60
2023-01-12T01:15:19.496Z,6.60
2023-01-12T01:17:51.327Z,6.50
2023-01-12T01:20:23.251Z,6.40
2023-01-12T01:22:55.096Z,6.40
2023-01-12T01:25:26.948Z,6.40
2023-01-12T01:27:58.814Z,6.30
2023-01-12T01:30:30.669Z,6.30
2023-01-12T01:33:02.559Z,6.30
2023-01-12T01:35:36.295Z,6.30
2023-01-12T01:38:08.203Z,6.30
2023-01-12T01:40:42.505Z,6.30
2023-01-12T01:43:16.261Z,6.30
2023-01-12T01:46:03.770Z,6.30
2023-01-12T01:48:39.654Z,6.20
2023-01-12T01:51:15.588Z,6.00
2023-01-12T01:53:48.397Z,5.90
2023-01-12T01:56:25.477Z,5.90
2023-01-12T01:59:06.561Z,5.90
2023-01-12T02:01:39.057Z,5.90
2023-01-12T02:04:11.457Z,6.00
2023-01-12T02:06:43.694Z,6.00
2023-01-12T02:09:21.418Z,6.00
2023-01-12T02:12:14.066Z,6.00
2023-01-12T02:15:08.087Z,6.00
2023-01-12T02:18:17.535Z,6.00
2023-01-12T02:21:12.501Z,5.90
2023-01-12T02:24:12.101Z,5.80
2023-01-12T02:26:59.403Z,5.80
2023-01-12T02:29:43.017Z,5.80
2023-01-12T02:32:17.826Z,5.90
2023-01-12T02:35:07.819Z,5.80
2023-01-12T02:37:50.400Z,5.80
2023-01-12T02:40:32.022Z,5.80
2023-01-12T02:43:06.033Z,5.70
2023-01-12T02:45:49.810Z,5.70
2023-01-12T02:48:40.547Z,5.60
2023-01-12T02:51:23.631Z,5.50
2023-01-12T02:54:14.339Z,5.50
2023-01-12T02:56:52.351Z,5.50
2023-01-12T02:59:34.809Z,5.40
2023-01-12T03:02:09.926Z,5.40
2023-01-12T03:04:42.296Z,5.40
2023-01-12T03:07:33.128Z,5.40
2023-01-12T03:10:39.096Z,5.50
2023-01-12T03:13:14.991Z,5.40
2023-01-12T03:15:54.300Z,5.40
2023-01-12T03:18:36.798Z,5.50
2023-01-12T03:21:18.036Z,5.50
2023-01-12T03:23:57.516Z,5.50
2023-01-12T03:26:32.381Z,5.50
2023-01-12T03:29:12.335Z,5.50
2023-01-12T03:31:44.207Z,5.50
2023-01-12T03:34:16.173Z,5.50
2023-01-12T03:37:25.201Z,5.60
2023-01-12T03:40:18.635Z,5.70
2023-01-12T03:43:06.799Z,5.70
2023-01-12T03:46:09.301Z,5.70
2023-01-12T03:48:43.932Z,5.70
2023-01-12T03:51:31.894Z,5.70
2023-01-12T03:54:05.942Z,5.70
2023-01-12T03:56:40.353Z,5.60
2023-01-12T03:59:13.122Z,5.60
2023-01-12T04:01:45.276Z,5.60
2023-01-12T04:04:17.588Z,5.60
2023-01-12T04:06:49.487Z,5.60
2023-01-12T04:09:23.488Z,5.60
2023-01-12T04:12:10.186Z,5.60
2023-01-12T04:14:46.867Z,5.60
2023-01-12T04:17:24.160Z,5.60
2023-01-12T04:19:56.059Z,5.60
2023-01-12T04:22:43.111Z,5.60
2023-01-12T04:25:20.170Z,5.60
2023-01-12T04:28:07.220Z,5.70
2023-01-12T04:30:39.066Z,5.70
2023-01-12T04:33:11.533Z,5.70
2023-01-12T04:35:43.372Z,5.70
2023-01-12T04:38:16.788Z,5.60
2023-01-12T04:40:56.690Z,5.50
2023-01-12T04:43:28.500Z,5.40
2023-01-12T04:46:09.123Z,5.50
2023-01-12T04:48:44.010Z,5.60
2023-01-12T04:51:15.892Z,5.60
2023-01-12T04:53:51.403Z,5.60
2023-01-12T04:56:23.311Z,5.50
2023-01-12T04:58:59.628Z,5.50
2023-01-12T05:01:31.737Z,5.60
2023-01-12T05:04:04.784Z,5.60
2023-01-12T05:06:38.096Z,5.60
2023-01-12T05:09:28.407Z,5.70
2023-01-12T05:12:01.139Z,5.70
2023-01-12T05:14:33.106Z,5.70
2023-01-12T05:17:05.926Z,5.70
2023-01-12T05:19:37.935Z,5.80
2023-01-12T05:22:09.807Z,5.80
2023-01-12T05:24:41.810Z,5.90
2023-01-12T05:27:13.675Z,5.90
2023-01-12T05:29:45.539Z,5.80
2023-01-12T05:32:17.460Z,5.80
2023-01-12T05:34:49.312Z,5.70
2023-01-12T05:37:21.176Z,5.60
2023-01-12T05:39:53.041Z,5.70
2023-01-12T05:42:43.279Z,5.70
2023-01-12T05:45:15.204Z,5.70
2023-01-12T05:47:47.042Z,5.70
2023-01-12T05:50:18.959Z,5.50
2023-01-12T05:53:10.943Z,5.40
2023-01-12T05:55:42.743Z,5.40
2023-01-12T05:58:14.570Z,5.40
2023-01-12T06:00:46.832Z,5.40
2023-01-12T06:03:18.660Z,5.50
2023-01-12T06:05:58.445Z,5.50
2023-01-12T06:08:30.611Z,5.50
2023-01-12T06:11:03.648Z,5.60
2023-01-12T06:13:53.941Z,5.60
2023-01-12T06:16:26.971Z,5.60
2023-01-12T06:19:01.542Z,5.70
2023-01-12T06:21:34.441Z,5.70
2023-01-12T06:24:06.749Z,5.70
2023-01-12T06:26:38.858Z,5.70
2023-01-12T06:29:11.067Z,5.60
2023-01-12T06:31:43.864Z,5.70
2023-01-12T06:34:15.835Z,5.70
2023-01-12T06:36:47.706Z,5.70
2023-01-12T06:39:19.628Z,5.70
2023-01-12T06:42:09.755Z,5.80
2023-01-12T06:44:41.667Z,5.80
2023-01-12T06:47:13.515Z,5.80
2023-01-12T06:49:45.375Z,5.90
2023-01-12T06:52:24.610Z,6.00
2023-01-12T06:54:56.682Z,6.10
2023-01-12T06:57:28.652Z,6.20
2023-01-12T07:00:00.478Z,6.20
2023-01-12T07:02:32.403Z,6.30
2023-01-12T07:05:04.631Z,6.20
2023-01-12T07:07:39.276Z,6.20
2023-01-12T07:10:12.487Z,6.30
2023-01-12T07:12:44.300Z,6.40
2023-01-12T07:15:16.489Z,6.50
2023-01-12T07:17:48.388Z,6.70
2023-01-12T07:20:20.291Z,7.30
2023-01-12T07:22:52.088Z,8.30
2023-01-12T07:25:25.139Z,8.80
2023-01-12T07:27:58.220Z,8.90
2023-01-12T07:30:30.123Z,9.20
2023-01-12T07:33:13.790Z,9.40
2023-01-12T07:35:45.829Z,9.20
2023-01-12T07:38:17.679Z,8.90
2023-01-12T07:40:49.499Z,8.60
2023-01-12T07:43:21.290Z,8.40
2023-01-12T07:45:55.153Z,8.20
2023-01-12T07:48:27.532Z,8.10
2023-01-12T07:50:59.610Z,8.00
2023-01-12T07:53:31.467Z,8.00
2023-01-12T07:56:03.399Z,8.00
2023-01-12T07:58:35.505Z,8.10
2023-01-12T08:01:07.411Z,8.30
2023-01-12T08:03:39.952Z,8.40
2023-01-12T08:06:11.928Z,8.50
2023-01-12T08:08:43.834Z,8.50
2023-01-12T08:11:15.739Z,8.50
2023-01-12T08:13:47.689Z,8.50
2023-01-12T08:16:24.449Z,8.50
2023-01-12T08:19:04.501Z,8.50
2023-01-12T08:21:45.923Z,8.40
2023-01-12T08:24:22.519Z,8.40
2023-01-12T08:26:58.687Z,8.20
2023-01-12T08:29:44.147Z,8.00
2023-01-12T08:32:19.104Z,7.90
2023-01-12T08:34:53.456Z,7.90
2023-01-12T08:37:25.632Z,7.80
2023-01-12T08:39:57.683Z,7.60
2023-01-12T08:42:31.934Z,7.50
2023-01-12T08:45:07.862Z,7.50
2023-01-12T08:47:42.349Z,7.50
2023-01-12T08:50:14.515Z,7.70
2023-01-12T08:52:46.322Z,7.70
2023-01-12T08:55:18.171Z,7.60
2023-01-12T08:57:50.005Z,7.50
2023-01-12T09:00:22.586Z,7.50
2023-01-12T09:02:54.500Z,7.60
2023-01-12T09:05:26.992Z,7.60
2023-01-12T09:07:58.830Z,7.70
2023-01-12T09:10:30.697Z,7.80
2023-01-12T09:13:03.010Z,7.80
2023-01-12T09:15:35.762Z,7.80
2023-01-12T09:18:07.587Z,7.70
2023-01-12T09:20:39.487Z,7.80
2023-01-12T09:23:11.353Z,7.80
2023-01-12T09:25:43.163Z,7.90
2023-01-12T09:28:14.965Z,8.10
2023-01-12T09:30:46.794Z,8.10
2023-01-12T09:33:19.051Z,8.10
2023-01-12T09:35:50.954Z,8.20
2023-01-12T09:38:22.773Z,8.30
2023-01-12T09:40:55.533Z,8.50
2023-01-12T09:43:46.158Z,8.60
2023-01-12T09:46:44.677Z,8.60
2023-01-12T09:49:18.336Z,8.70
2023-01-12T09:52:21.404Z,8.80
2023-01-12T09:54:53.465Z,8.90
2023-01-12T09:57:54.379Z,9.00
2023-01-12T10:00:28.279Z,9.00
2023-01-12T10:03:06.113Z,9.10
2023-01-12T10:05:48.826Z,9.10
2023-01-12T10:08:33.705Z,9.30
2023-01-12T10:11:10.499Z,9.30
2023-01-12T10:13:58.666Z,9.30
2023-01-12T10:16:35.305Z,9.40
2023-01-12T10:19:25.153Z,9.60
2023-01-12T10:21:58.014Z,9.80
2023-01-12T10:24:29.976Z,9.90
2023-01-12T10:27:04.210Z,9.90
2023-01-12T10:29:36.134Z,9.90
2023-01-12T10:32:11.254Z,9.80
2023-01-12T10:34:52.945Z,9.60
2023-01-12T10:37:24.828Z,9.60
2023-01-12T10:39:56.712Z,9.60
2023-01-12T10:42:47.253Z,9.50
2023-01-12T10:45:21.899Z,9.50
2023-01-12T10:47:54.205Z,9.60
2023-01-12T10:50:28.077Z,9.70
2023-01-12T10:53:12.765Z,9.80
2023-01-12T10:55:45.363Z,9.90
2023-01-12T10:58:27.582Z,9.90
2023-01-12T11:00:59.814Z,9.90
2023-01-12T11:03:37.635Z,10.00
2023-01-12T11:06:28.958Z,9.90
2023-01-12T11:09:19.196Z,10.00
2023-01-12T11:11:59.651Z,10.00
2023-01-12T11:14:39.944Z,9.90
2023-01-12T11:17:17.441Z,9.90
2023-01-12T11:19:54.104Z,9.90
2023-01-12T11:22:30.321Z,9.80
2023-01-12T11:25:10.141Z,9.80
2023-01-12T11:27:54.661Z,9.90
2023-01-12T11:30:41.216Z,9.80
2023-01-12T11:33:30.735Z,9.80
2023-01-12T11:36:07.198Z,9.80
2023-01-12T11:38:46.003Z,9.90
2023-01-12T11:41:29.602Z,9.90
2023-01-12T11:44:23.824Z,9.80
2023-01-12T11:47:05.265Z,9.90
2023-01-12T11:49:40.064Z,9.80
2023-01-12T11:52:14.807Z,9.80
2023-01-12T11:54:46.758Z,9.70
2023-01-12T11:57:52.245Z,9.70
2023-01-12T12:00:37.472Z,9.80
2023-01-12T12:03:44.533Z,9.60
2023-01-12T12:06:48.824Z,9.50
2023-01-12T12:09:29.381Z,9.50
2023-01-12T12:12:05.061Z,9.50
2023-01-12T12:15:07.199Z,9.50
2023-01-12T12:17:56.783Z,9.70
2023-01-12T12:20:41.726Z,9.80
2023-01-12T12:23:16.504Z,9.90
2023-01-12T12:26:13.615Z,10.10
2023-01-12T12:29:03.556Z,10.00
2023-01-12T12:31:50.422Z,10.00
2023-01-12T12:34:51.304Z,10.00
2023-01-12T12:37:26.488Z,9.90
2023-01-12T12:40:26.632Z,9.90
2023-01-12T12:43:38.972Z,9.90
2023-01-12T12:46:41.696Z,9.90
2023-01-12T12:49:19.525Z,10.00
2023-01-12T12:51:53.143Z,10.10
2023-01-12T12:54:26.676Z,10.00
2023-01-12T12:56:58.790Z,10.00
2023-01-12T12:59:34.080Z,10.10
2023-01-12T13:02:33.774Z,10.20
2023-01-12T13:05:08.687Z,10.20
2023-01-12T13:07:51.185Z,10.30
2023-01-12T13:10:30.680Z,10.40
2023-01-12T13:13:05.004Z,10.60
2023-01-12T13:15:37.459Z,10.70
2023-01-12T13:18:47.915Z,10.80
2023-01-12T13:21:32.873Z,11.00
2023-01-12T13:24:11.371Z,11.00
2023-01-12T13:26:44.744Z,11.10
2023-01-12T13:29:29.139Z,11.00
2023-01-12T13:32:36.691Z,10.90
2023-01-12T13:35:48.983Z,10.90
2023-01-12T13:38:52.327Z,11.00
2023-01-12T13:41:47.609Z,11.10
2023-01-12T13:44:42.299Z,11.10
2023-01-12T13:47:23.015Z,11.10
2023-01-12T13:50:00.303Z,11.00
2023-01-12T13:52:35.799Z,10.90
2023-01-12T13:55:22.792Z,11.00
2023-01-12T13:58:14.687Z,10.90
2023-01-12T14:01:00.820Z,10.90
2023-01-12T14:03:59.359Z,10.90
2023-01-12T14:07:13.156Z,10.90
2023-01-12T14:10:06.050Z,10.90
2023-01-12T14:13:00.817Z,10.90
2023-01-12T14:16:01.098Z,10.90
2023-01-12T14:18:47.751Z,10.90
2023-01-12T14:21:33.462Z,10.90
2023-01-12T14:24:25.131Z,10.90
2023-01-12T14:26:57.064Z,10.80
2023-01-12T14:29:29.335Z,10.80
2023-01-12T14:32:01.371Z,10.90
2023-01-12T14:34:36.550Z,10.90
2023-01-12T14:37:36.538Z,11.00
2023-01-12T14:40:23.749Z,10.90
2023-01-12T14:43:14.504Z,10.80
2023-01-12T14:46:20.496Z,10.90
2023-01-12T14:49:20.449Z,10.80
2023-01-12T14:51:55.958Z,10.70
2023-01-12T14:54:31.002Z,10.70
2023-01-12T14:57:07.479Z,10.70
2023-01-12T14:59:45.488Z,10.60
2023-01-12T15:02:31.206Z,10.50
2023-01-12T15:05:06.058Z,10.40
2023-01-12T15:07:53.826Z,10.40
2023-01-12T15:10:29.947Z,10.40
2023-01-12T15:13:32.940Z,10.40
2023-01-12T15:16:24.426Z,10.40
2023-01-12T15:19:14.877Z,10.30
2023-01-12T15:22:06.270Z,10.30
2023-01-12T15:24:58.977Z,10.20
2023-01-12T15:27:31.165Z,10.00
2023-01-12T15:30:03.163Z,10.00
2023-01-12T15:32:48.378Z,9.90
2023-01-12T15:35:25.808Z,9.90
2023-01-12T15:37:58.785Z,9.80
2023-01-12T15:40:34.954Z,9.70
2023-01-12T15:43:15.161Z,9.60
2023-01-12T15:45:49.213Z,9.60
2023-01-12T15:48:21.216Z,9.50
2023-01-12T15:50:53.124Z,9.30
2023-01-12T15:53:27.359Z,9.10
2023-01-12T15:55:59.239Z,9.00
2023-01-12T15:58:31.146Z,9.00
2023-01-12T16:01:06.911Z,8.90
2023-01-12T16:04:04.764Z,8.80
2023-01-12T16:06:33.877Z,8.70
2023-01-12T16:09:05.953Z,8.60
2023-01-12T16:11:38.115Z,8.60
2023-01-12T16:14:10.443Z,8.50
2023-01-12T16:16:42.513Z,8.40
2023-01-12T16:19:22.477Z,8.30
2023-01-12T16:21:55.158Z,8.30
2023-01-12T16:24:30.922Z,8.30
2023-01-12T16:27:03.050Z,8.30
2023-01-12T16:29:35.092Z,8.10
2023-01-12T16:32:07.236Z,8.00
2023-01-12T16:34:39.539Z,7.90
2023-01-12T16:37:13.803Z,7.80
2023-01-12T16:39:46.169Z,7.80
2023-01-12T16:42:18.070Z,7.70
2023-01-12T16:44:50.488Z,7.70
2023-01-12T16:47:24.488Z,7.70
2023-01-12T16:49:56.345Z,7.60
2023-01-12T16:52:30.952Z,7.70
2023-01-12T16:55:05.885Z,7.70
2023-01-12T16:57:40.351Z,7.80
2023-01-12T17:00:12.746Z,7.70
2023-01-12T17:02:45.429Z,7.70
2023-01-12T17:05:17.451Z,7.60
2023-01-12T17:07:49.832Z,7.50
2023-01-12T17:10:22.683Z,7.40
2023-01-12T17:12:57.264Z,7.30
2023-01-12T17:15:34.850Z,7.20
2023-01-12T17:18:07.026Z,7.10
2023-01-12T17:20:41.821Z,7.00
2023-01-12T17:23:14.252Z,7.00
2023-01-12T17:25:46.073Z,7.00
2023-01-12T17:28:18.046Z,7.00
2023-01-12T17:30:50.123Z,7.10
2023-01-12T17:33:22.411Z,7.10
2023-01-12T17:35:55.164Z,7.20
2023-01-12T17:38:27.097Z,7.20
2023-01-12T17:40:59.211Z,7.20
2023-01-12T17:43:31.335Z,7.10
2023-01-12T17:46:04.200Z,7.00
2023-01-12T17:48:36.488Z,6.90
2023-01-12T17:51:12.089Z,6.80
2023-01-12T17:53:44.165Z,6.70
2023-01-12T17:56:16.110Z,6.70
2023-01-12T17:58:52.615Z,6.80
2023-01-12T18:01:29.820Z,6.80
2023-01-12T18:04:02.087Z,6.80
2023-01-12T18:06:34.410Z,6.80
2023-01-12T18:09:06.324Z,6.70
2023-01-12T18:11:38.680Z,6.60
2023-01-12T18:14:11.773Z,6.50
2023-01-12T18:16:43.910Z,6.50
2023-01-12T18:19:15.827Z,6.50
2023-01-12T18:21:50.307Z,6.50
2023-01-12T18:24:22.664Z,6.60
2023-01-12T18:26:54.517Z,6.70
2023-01-12T18:29:26.863Z,6.70
2023-01-12T18:31:58.935Z,6.70
2023-01-12T18:34:31.073Z,6.70
2023-01-12T18:37:02.913Z,6.70
2023-01-12T18:39:35.267Z,6.70
2023-01-12T18:42:28.378Z,6.70
2023-01-12T18:45:01.040Z,6.70
2023-01-12T18:47:51.358Z,6.70
2023-01-12T18:50:41.664Z,6.70
2023-01-12T18:53:31.767Z,6.60
2023-01-12T18:56:04.857Z,6.60
2023-01-12T18:58:38.459Z,6.60
2023-01-12T19:01:13.818Z,6.50
2023-01-12T19:03:45.925Z,6.50
2023-01-12T19:06:38.540Z,6.50
2023-01-12T19:09:32.502Z,6.50
2023-01-12T19:12:06.473Z,6.50
2023-01-12T19:14:56.810Z,6.60
2023-01-12T19:17:30.176Z,6.60
2023-01-12T19:20:07.655Z,6.60
2023-01-12T19:22:57.900Z,6.60
2023-01-12T19:25:48.193Z,6.60
2023-01-12T19:28:35.988Z,6.60
2023-01-12T19:31:10.799Z,6.50
2023-01-12T19:33:42.979Z,6.60
2023-01-12T19:36:16.035Z,6.60
2023-01-12T19:38:51.013Z,6.60
2023-01-12T19:41:41.451Z,6.50
2023-01-12T19:44:13.286Z,6.60
2023-01-12T19:46:45.195Z,6.70
2023-01-12T19:49:17.703Z,6.60
2023-01-12T19:51:50.836Z,6.60
2023-01-12T19:54:22.776Z,6.60
2023-01-12T19:56:54.720Z,6.50
2023-01-12T19:59:27.531Z,6.50
2023-01-12T20:02:01.337Z,6.60
2023-01-12T20:04:34.073Z,6.60
2023-01-12T20:07:07.534Z,6.60
2023-01-12T20:09:39.361Z,6.60
2023-01-12T20:12:11.181Z,6.60
2023-01-12T20:14:43.468Z,6.50
2023-01-12T20:17:15.302Z,6.60
2023-01-12T20:19:48.966Z,6.60
2023-01-12T20:22:21.215Z,6.60
2023-01-12T20:24:53.168Z,6.60
2023-01-12T20:27:25.157Z,6.70
2023-01-12T20:29:57.051Z,6.70
2023-01-12T20:32:31.790Z,6.80
2023-01-12T20:35:05.309Z,6.70
2023-01-12T20:37:37.887Z,6.70
2023-01-12T20:40:12.027Z,6.70
2023-01-12T20:42:44.059Z,6.70
2023-01-12T20:45:15.997Z,6.70
2023-01-12T20:47:48.319Z,6.70
2023-01-12T20:50:20.308Z,6.70
2023-01-12T20:52:54.862Z,6.70
2023-01-12T20:55:27.663Z,6.70
2023-01-12T20:58:00.492Z,6.80
2023-01-12T21:00:32.723Z,6.80
2023-01-12T21:03:05.673Z,6.80
2023-01-12T21:05:45.392Z,6.80
2023-01-12T21:08:18.676Z,6.90
2023-01-12T21:10:53.967Z,6.90
2023-01-12T21:13:26.971Z,6.90
2023-01-12T21:16:05.334Z,7.00
2023-01-12T21:18:38.201Z,7.10
2023-01-12T21:21:11.879Z,7.10
2023-01-12T21:23:44.370Z,7.10
2023-01-12T21:26:16.290Z,7.10
2023-01-12T21:28:48.283Z,7.10
2023-01-12T21:31:20.073Z,7.10
2023-01-12T21:33:51.944Z,7.10
2023-01-12T21:36:23.867Z,6.90
2023-01-12T21:38:55.760Z,6.90
2023-01-12T21:41:27.735Z,6.70
2023-01-12T21:44:01.106Z,6.60
2023-01-12T21:46:34.081Z,6.50
2023-01-12T21:49:07.332Z,6.50
2023-01-12T21:51:39.601Z,6.50
2023-01-12T21:54:11.504Z,6.50
2023-01-12T21:56:44.439Z,6.40
2023-01-12T21:59:16.340Z,6.20
2023-01-12T22:01:48.592Z,6.10
2023-01-12T22:04:20.552Z,6.10
2023-01-12T22:06:52.898Z,6.30
2023-01-12T22:09:24.888Z,6.30
2023-01-12T22:11:56.783Z,6.30
2023-01-12T22:14:28.652Z,6.30
2023-01-12T22:17:00.517Z,6.20
2023-01-12T22:19:32.666Z,6.20
2023-01-12T22:22:06.362Z,6.20
2023-01-12T22:24:38.420Z,6.10
2023-01-12T22:27:10.373Z,6.10
2023-01-12T22:29:42.236Z,6.10
2023-01-12T22:32:14.147Z,6.10
2023-01-12T22:34:46.042Z,6.10
2023-01-12T22:37:17.896Z,6.00
2023-01-12T22:39:49.707Z,5.90
2023-01-12T22:42:43.245Z,5.90
2023-01-12T22:45:15.189Z,6.00
2023-01-12T22:47:55.439Z,6.00
2023-01-12T22:50:27.453Z,6.00
2023-01-12T22:52:59.398Z,6.00
2023-01-12T22:55:31.421Z,6.10
2023-01-12T22:58:04.615Z,6.20
2023-01-12T23:00:39.856Z,6.30
2023-01-12T23:03:13.516Z,6.20
2023-01-12T23:05:48.812Z,6.10
2023-01-12T23:08:20.690Z,6.00
2023-01-12T23:11:01.342Z,5.90
2023-01-12T23:13:36.618Z,5.90
2023-01-12T23:16:10.465Z,5.90
2023-01-12T23:18:44.531Z,6.00
2023-01-12T23:21:21.022Z,6.00
2023-01-12T23:23:58.624Z,5.90
2023-01-12T23:26:32.839Z,6.00
2023-01-12T23:29:04.736Z,6.00
2023-01-12T23:31:36.654Z,6.00
2023-01-12T23:34:08.603Z,6.00
2023-01-12T23:36:40.571Z,6.10
2023-01-12T23:39:12.593Z,6.10
2023-01-12T23:41:44.481Z,6.10
2023-01-12T23:44:16.556Z,6.20
2023-01-12T23:46:48.383Z,6.20
2023-01-12T23:49:20.229Z,6.20
2023-01-12T23:51:52.118Z,6.30
2023-01-12T23:54:23.970Z,6.30
2023-01-12T23:56:55.841Z,6.30
2023-01-12T23:59:27.781Z,6.40
